Time;durP1;ratioP1;P1;durP2;ratioP2;P2;SDS_P1;SDS_P2;PMS_P1;PMS_P2;Temp;Humidity;BMP_temperature;BMP_pressure;BME280_temperature;BME280_humidity;BME280_pressure;Samples;Min_cycle;Max_cycle;Signal;HPM_P1;HPM_P2
2022/12/07 19:08:25;;;;;;;17.88;7.47;;;;;;;;;;6282631;22;20049;-90
2022/12/07 19:10:53;;;;;;;16.90;7.30;;;;;;;;;;6220784;22;20098;-90
2022/12/07 19:13:21;;;;;;;16.95;8.02;;;;;;;;;;6256698;22;20020;-90
2022/12/07 19:15:49;;;;;;;17.85;8.48;;;;;;;;;;6284950;22;20339;-91
2022/12/07 19:18:17;;;;;;;20.48;8.25;;;;;;;;;;6231763;22;20020;-90
2022/12/07 19:20:45;;;;;;;18.60;8.90;;;;;;;;;;6282246;22;20065;-90
2022/12/07 19:23:13;;;;;;;22.60;8.75;;;;;;;;;;6233008;22;20018;-91
2022/12/07 19:25:41;;;;;;;20.58;8.88;;;;;;;;;;6258103;22;20028;-92
2022/12/07 19:28:09;;;;;;;17.23;7.97;;;;;;;;;;6222836;22;20024;-91
2022/12/07 19:30:37;;;;;;;24.92;8.73;;;;;;;;;;6224418;22;20026;-90
2022/12/07 19:33:05;;;;;;;14.20;6.95;;;;;;;;;;6221150;22;20355;-91
2022/12/07 19:35:33;;;;;;;24.23;7.88;;;;;;;;;;6233187;22;20015;-91
2022/12/07 19:38:01;;;;;;;15.50;7.22;;;;;;;;;;6255845;22;20024;-90
2022/12/07 19:40:29;;;;;;;13.60;6.13;;;;;;;;;;6255158;22;20483;-90
2022/12/07 19:42:57;;;;;;;17.80;7.10;;;;;;;;;;6282412;22;20024;-90
2022/12/07 19:45:31;;;;;;;14.80;7.15;;;;;;;;;;6220285;22;20023;-89
2022/12/07 19:47:59;;;;;;;19.73;6.90;;;;;;;;;;6193548;22;20026;-89
2022/12/07 19:50:28;;;;;;;16.60;6.85;;;;;;;;;;6230501;22;20018;-90
2022/12/07 19:52:55;;;;;;;17.33;7.00;;;;;;;;;;6229477;22;20432;-90
2022/12/07 19:55:23;;;;;;;16.83;5.72;;;;;;;;;;6255471;22;20050;-91
2022/12/07 19:57:51;;;;;;;14.85;6.50;;;;;;;;;;6219321;22;20038;-90
2022/12/07 20:00:19;;;;;;;14.18;6.32;;;;;;;;;;6253535;22;20110;-90
2022/12/07 20:02:50;;;;;;;14.65;6.03;;;;;;;;;;6277864;22;20016;-89
2022/12/07 20:05:20;;;;;;;13.40;5.65;;;;;;;;;;6242152;22;20103;-89
2022/12/07 20:07:53;;;;;;;13.48;5.28;;;;;;;;;;6279568;22;20039;-89
2022/12/07 20:10:25;;;;;;;11.63;5.57;;;;;;;;;;6219130;22;20023;-89
2022/12/07 20:15:39;;;;;;;11.77;5.13;;;;;;;;;;6254117;22;20038;-90
2022/12/07 20:18:07;;;;;;;14.35;5.55;;;;;;;;;;6217055;22;20019;-89
2022/12/07 20:20:35;;;;;;;15.10;6.20;;;;;;;;;;6223599;22;20019;-89
2022/12/07 20:23:03;;;;;;;11.77;5.63;;;;;;;;;;6242294;22;20641;-91
2022/12/07 20:25:55;;;;;;;11.52;5.25;;;;;;;;;;6243900;22;20023;-90
2022/12/07 20:28:23;;;;;;;13.80;5.90;;;;;;;;;;6252860;22;20475;-90
2022/12/07 20:30:52;;;;;;;12.20;5.82;;;;;;;;;;6281943;22;20054;-89
2022/12/07 20:33:25;;;;;;;10.85;4.82;;;;;;;;;;6279095;22;20020;-89
2022/12/07 20:35:58;;;;;;;9.65;4.78;;;;;;;;;;6280353;22;20023;-89
2022/12/07 20:38:28;;;;;;;11.75;5.18;;;;;;;;;;6220650;22;20019;-90
2022/12/07 20:40:59;;;;;;;13.10;5.55;;;;;;;;;;6252783;22;20062;-89
2022/12/07 20:43:27;;;;;;;12.75;5.90;;;;;;;;;;6281217;22;20118;-89
2022/12/07 20:46:01;;;;;;;11.00;5.90;;;;;;;;;;6218933;22;20028;-89
2022/12/07 20:48:38;;;;;;;15.73;6.07;;;;;;;;;;6227990;22;20022;-89
2022/12/07 20:51:05;;;;;;;17.42;6.10;;;;;;;;;;6193482;22;20019;-90
2022/12/07 20:53:33;;;;;;;11.35;5.70;;;;;;;;;;6194255;22;20027;-90
2022/12/07 20:56:01;;;;;;;12.55;7.07;;;;;;;;;;6281886;22;20035;-90
2022/12/07 20:58:33;;;;;;;17.63;6.53;;;;;;;;;;6255364;22;20035;-90
2022/12/07 21:01:02;;;;;;;15.30;7.50;;;;;;;;;;6281895;22;20395;-89
2022/12/07 21:03:29;;;;;;;13.55;7.32;;;;;;;;;;6242046;22;20024;-89
2022/12/07 21:06:01;;;;;;;17.38;7.88;;;;;;;;;;6281566;22;20098;-89
2022/12/07 21:08:56;;;;;;;16.27;7.22;;;;;;;;;;6260739;22;20019;-89
2022/12/07 21:11:24;;;;;;;18.60;7.18;;;;;;;;;;6218761;22;20082;-90
2022/12/07 21:14:23;;;;;;;16.98;6.93;;;;;;;;;;6259623;22;20019;-89
2022/12/07 21:16:51;;;;;;;13.52;7.13;;;;;;;;;;6247850;22;20044;-90
2022/12/07 21:19:19;;;;;;;19.13;6.90;;;;;;;;;;6219216;22;20020;-89
2022/12/07 21:21:47;;;;;;;15.05;7.20;;;;;;;;;;6282126;22;20786;-90
2022/12/07 21:24:15;;;;;;;17.13;7.22;;;;;;;;;;6281953;22;20015;-90
2022/12/07 21:26:43;;;;;;;17.25;8.00;;;;;;;;;;6260020;22;20016;-91
2022/12/07 21:29:11;;;;;;;22.63;8.95;;;;;;;;;;6232765;22;20256;-90
2022/12/07 21:31:39;;;;;;;20.50;9.23;;;;;;;;;;6245941;22;20085;-90
2022/12/07 21:34:07;;;;;;;19.00;9.15;;;;;;;;;;6259911;22;20016;-90
2022/12/07 21:36:35;;;;;;;16.85;8.65;;;;;;;;;;6246913;22;20352;-91
2022/12/07 21:39:07;;;;;;;19.20;8.57;;;;;;;;;;6225255;22;20089;-91
2022/12/07 21:41:35;;;;;;;16.85;9.10;;;;;;;;;;6287425;22;20015;-90
2022/12/07 21:44:09;;;;;;;16.17;8.57;;;;;;;;;;6233300;22;20047;-90
2022/12/07 21:47:01;;;;;;;18.05;8.25;;;;;;;;;;6249258;22;20624;-89
2022/12/07 21:49:29;;;;;;;19.88;9.77;;;;;;;;;;6247797;22;20034;-89
2022/12/07 21:52:22;;;;;;;19.52;8.60;;;;;;;;;;6262790;22;20096;-91
2022/12/07 21:54:51;;;;;;;16.90;8.15;;;;;;;;;;6259898;22;20493;-91
2022/12/07 21:57:23;;;;;;;21.65;8.43;;;;;;;;;;6262174;22;20039;-91
2022/12/07 21:59:51;;;;;;;19.50;8.40;;;;;;;;;;6237387;22;20091;-91
2022/12/07 22:02:43;;;;;;;16.15;7.95;;;;;;;;;;6251174;22;20028;-92
2022/12/07 22:05:11;;;;;;;16.40;7.57;;;;;;;;;;6290730;22;20023;-92
2022/12/07 22:07:39;;;;;;;20.00;7.78;;;;;;;;;;6261078;22;20019;-91
2022/12/07 22:10:07;;;;;;;13.85;6.72;;;;;;;;;;6235206;22;20015;-91
2022/12/07 22:12:41;;;;;;;18.90;6.90;;;;;;;;;;6259895;22;20046;-90
2022/12/07 22:15:09;;;;;;;18.30;6.28;;;;;;;;;;6285348;22;20012;-90
2022/12/07 22:18:01;;;;;;;14.25;6.82;;;;;;;;;;6248055;22;20424;-91
2022/12/07 22:20:33;;;;;;;14.13;6.45;;;;;;;;;;6228213;22;20038;-92
2022/12/07 22:23:06;;;;;;;13.32;5.78;;;;;;;;;;6263677;22;20016;-91
2022/12/07 22:25:33;;;;;;;11.32;5.32;;;;;;;;;;6261824;22;20020;-91
2022/12/07 22:28:01;;;;;;;12.65;5.22;;;;;;;;;;6260420;22;20103;-91
2022/12/07 22:30:33;;;;;;;14.95;5.72;;;;;;;;;;6286166;22;20061;-91
2022/12/07 22:33:01;;;;;;;11.25;5.30;;;;;;;;;;6221503;22;20450;-90
2022/12/07 22:35:29;;;;;;;10.18;4.85;;;;;;;;;;6257479;22;20011;-90
2022/12/07 22:37:57;;;;;;;8.68;4.55;;;;;;;;;;6233072;22;20022;-90
2022/12/07 22:40:25;;;;;;;8.35;4.45;;;;;;;;;;6222354;22;20475;-91
2022/12/07 22:42:53;;;;;;;11.32;5.30;;;;;;;;;;6256618;22;20035;-90
2022/12/07 22:45:25;;;;;;;9.95;4.72;;;;;;;;;;6286529;22;20071;-91
2022/12/07 22:47:53;;;;;;;12.40;5.38;;;;;;;;;;6283767;22;20106;-90
2022/12/07 22:50:21;;;;;;;18.58;5.03;;;;;;;;;;6285686;22;20019;-91
2022/12/07 22:52:51;;;;;;;8.90;4.13;;;;;;;;;;6246793;22;20047;-91
2022/12/07 22:55:19;;;;;;;9.05;4.57;;;;;;;;;;6258390;22;20065;-90
2022/12/07 22:57:52;;;;;;;13.90;5.78;;;;;;;;;;6283203;22;20019;-90
2022/12/07 23:00:19;;;;;;;9.77;5.35;;;;;;;;;;6256793;22;20008;-90
2022/12/07 23:02:47;;;;;;;11.52;4.88;;;;;;;;;;6282277;22;20015;-89
2022/12/07 23:05:19;;;;;;;8.10;4.20;;;;;;;;;;6233341;22;20043;-90
2022/12/07 23:07:47;;;;;;;17.05;4.45;;;;;;;;;;6259590;22;20557;-90
2022/12/07 23:10:19;;;;;;;10.20;4.97;;;;;;;;;;6283984;22;20015;-90
2022/12/07 23:15:39;;;;;;;11.10;5.28;;;;;;;;;;6247993;22;20089;-89
2022/12/07 23:18:11;;;;;;;14.60;5.88;;;;;;;;;;6258253;22;20020;-90
2022/12/07 23:20:43;;;;;;;10.18;5.07;;;;;;;;;;6284369;22;20014;-90
2022/12/07 23:23:11;;;;;;;12.63;5.53;;;;;;;;;;6284668;22;20367;-91
2022/12/07 23:25:39;;;;;;;13.52;5.60;;;;;;;;;;6247287;22;20039;-90
2022/12/07 23:28:31;;;;;;;12.02;6.10;;;;;;;;;;6283104;22;20380;-90
2022/12/07 23:31:04;;;;;;;11.35;6.00;;;;;;;;;;6280180;22;20066;-89
2022/12/07 23:33:33;;;;;;;12.13;6.03;;;;;;;;;;6219591;22;20015;-89
2022/12/07 23:36:22;;;;;;;10.63;5.25;;;;;;;;;;6283162;22;20038;-89
2022/12/07 23:38:50;;;;;;;11.35;5.78;;;;;;;;;;6244779;22;20430;-89
2022/12/07 23:41:43;;;;;;;10.77;5.70;;;;;;;;;;6219828;22;20004;-89
2022/12/07 23:44:11;;;;;;;11.35;5.53;;;;;;;;;;6218992;22;20030;-89
2022/12/07 23:46:39;;;;;;;10.43;5.70;;;;;;;;;;6254889;22;20081;-89
2022/12/07 23:49:14;;;;;;;13.90;6.13;;;;;;;;;;6218364;22;20082;-89
2022/12/07 23:51:43;;;;;;;13.98;6.13;;;;;;;;;;6255783;22;20024;-89
2022/12/07 23:54:11;;;;;;;16.88;6.70;;;;;;;;;;6255698;22;20026;-89
2022/12/07 23:56:39;;;;;;;13.45;6.20;;;;;;;;;;6230691;22;20483;-89
